KGSP

KGSP

11627
0
SHARE

注册欢迎 !, 全球其中一个最大的外汇论坛, 在这里您将能够找到的最完整和最可靠的外汇信息...
Visual slope indicator: 4-box VASI on right (3.00 degrees glide path) RVR equipment: … KGSP : 050053Z 16004KT 10SM CLR 27/18 A3008 RMK AO2 SLP172 T02670183 KGMU
Implements a curve of type DRAW_HISTOGRAM. 指标使用: 自定义指标使用: 订单管理特性: 其它特点: 下载: KGSP.mq4
//+ - //| Digital High Pass (KGHP) Filter | //| Created by newdigital | //| Using the Generator of …

 

二元期权指标 – 下载说明

KGSP is a Metatrader 4 (MT4) 指示灯和外汇指标的本质是把积累的历史数据.

KGSP provides for an opportunity to detect various peculiarities and patterns in price dynamics which are invisible to the naked eye.

基于该信息, 交易者可以进一步假设价格变动并相应地调整自己的策略.

How to install KGSP.mq4?

  • Download KGSP.mq4
  • Copy KGSP.mq4 to your Metatrader Directory / 专家 / 指标 /
  • 启动或重新启动的MetaTrader客户端
  • 要测试你的指标选择图表及时限
  • 搜索 “自定义指标” 在您的浏览器大多留在你的MetaTrader客户端
  • Right click on KGSP.mq4
  • 附加到图表
  • 修改设置或按确定
  • Indicator KGSP.mq4 is available on your Chart

How to remove KGSP.mq4 from your Metatrader Chart?

  • 选择哪里是指示灯在您的MetaTrader客户端运行图
  • 右键点击进入图表
  • “指标清单”
  • 选择指示器和删除

点击这里下面下载二元期权指标:

KGSP

SHARE
上一篇文章LinearRegSlope V1
下一篇文章KAGI 1

没有评论

发表评论